sensor_id;sensor_type;location;lat;lon;timestamp;temperature;humidity
18658;DHT22;9458;50.942;5.074;2023-03-01T00:01:38;3.10;99.90
18658;DHT22;9458;50.942;5.074;2023-03-01T00:04:06;3.00;99.90
18658;DHT22;9458;50.942;5.074;2023-03-01T00:06:34;3.00;99.90
18658;DHT22;9458;50.942;5.074;2023-03-01T00:09:03;3.00;99.90
18658;DHT22;9458;50.942;5.074;2023-03-01T00:11:34;3.00;99.90
18658;DHT22;9458;50.942;5.074;2023-03-01T00:14:02;2.90;99.90
18658;DHT22;9458;50.942;5.074;2023-03-01T00:16:35;2.90;99.90
18658;DHT22;9458;50.942;5.074;2023-03-01T00:19:05;2.90;99.90
18658;DHT22;9458;50.942;5.074;2023-03-01T00:21:33;3.00;99.90
18658;DHT22;9458;50.942;5.074;2023-03-01T00:24:02;2.90;99.90
18658;DHT22;9458;50.942;5.074;2023-03-01T00:26:34;2.90;99.90
18658;DHT22;9458;50.942;5.074;2023-03-01T00:29:03;2.90;99.90
18658;DHT22;9458;50.942;5.074;2023-03-01T00:31:32;3.00;99.90
18658;DHT22;9458;50.942;5.074;2023-03-01T00:34:02;2.90;99.90
18658;DHT22;9458;50.942;5.074;2023-03-01T00:36:31;2.90;99.90
18658;DHT22;9458;50.942;5.074;2023-03-01T00:39:00;2.90;99.90
18658;DHT22;9458;50.942;5.074;2023-03-01T00:41:29;2.80;99.90
18658;DHT22;9458;50.942;5.074;2023-03-01T00:43:59;2.80;99.90
18658;DHT22;9458;50.942;5.074;2023-03-01T00:46:27;2.80;99.90
18658;DHT22;9458;50.942;5.074;2023-03-01T00:48:57;2.80;99.90
18658;DHT22;9458;50.942;5.074;2023-03-01T00:51:25;2.80;99.90
18658;DHT22;9458;50.942;5.074;2023-03-01T00:53:56;2.80;99.90
18658;DHT22;9458;50.942;5.074;2023-03-01T00:56:25;2.80;99.90
18658;DHT22;9458;50.942;5.074;2023-03-01T00:58:54;2.70;99.90
18658;DHT22;9458;50.942;5.074;2023-03-01T01:01:25;2.80;99.90
18658;DHT22;9458;50.942;5.074;2023-03-01T01:03:57;2.70;99.90
18658;DHT22;9458;50.942;5.074;2023-03-01T01:06:28;2.70;99.90
18658;DHT22;9458;50.942;5.074;2023-03-01T01:08:56;2.70;99.90
18658;DHT22;9458;50.942;5.074;2023-03-01T01:11:29;2.70;99.90
18658;DHT22;9458;50.942;5.074;2023-03-01T01:14:05;2.70;99.90
18658;DHT22;9458;50.942;5.074;2023-03-01T01:16:35;2.70;99.90
18658;DHT22;9458;50.942;5.074;2023-03-01T01:19:13;2.70;99.90
18658;DHT22;9458;50.942;5.074;2023-03-01T01:21:46;2.70;99.90
18658;DHT22;9458;50.942;5.074;2023-03-01T01:24:16;2.70;99.90
18658;DHT22;9458;50.942;5.074;2023-03-01T01:26:46;2.70;99.90
18658;DHT22;9458;50.942;5.074;2023-03-01T01:29:23;2.70;99.90
18658;DHT22;9458;50.942;5.074;2023-03-01T01:31:54;2.70;99.90
18658;DHT22;9458;50.942;5.074;2023-03-01T01:34:22;2.70;99.90
18658;DHT22;9458;50.942;5.074;2023-03-01T01:36:52;2.60;99.90
18658;DHT22;9458;50.942;5.074;2023-03-01T01:39:20;2.60;99.90
18658;DHT22;9458;50.942;5.074;2023-03-01T01:41:49;2.60;99.90
18658;DHT22;9458;50.942;5.074;2023-03-01T01:44:21;2.60;99.90
18658;DHT22;9458;50.942;5.074;2023-03-01T01:46:55;2.50;99.90
18658;DHT22;9458;50.942;5.074;2023-03-01T01:49:28;2.50;99.90
18658;DHT22;9458;50.942;5.074;2023-03-01T01:52:07;2.50;99.90
18658;DHT22;9458;50.942;5.074;2023-03-01T01:54:42;2.50;99.90
18658;DHT22;9458;50.942;5.074;2023-03-01T01:57:18;2.50;99.90
18658;DHT22;9458;50.942;5.074;2023-03-01T01:59:56;2.50;99.90
18658;DHT22;9458;50.942;5.074;2023-03-01T02:02:37;2.40;99.90
18658;DHT22;9458;50.942;5.074;2023-03-01T02:05:12;2.40;99.90
18658;DHT22;9458;50.942;5.074;2023-03-01T02:07:47;2.40;99.90
18658;DHT22;9458;50.942;5.074;2023-03-01T02:10:18;2.30;99.90
18658;DHT22;9458;50.942;5.074;2023-03-01T02:12:46;2.30;99.90
18658;DHT22;9458;50.942;5.074;2023-03-01T02:15:15;2.30;99.90
18658;DHT22;9458;50.942;5.074;2023-03-01T02:17:44;2.30;99.90
18658;DHT22;9458;50.942;5.074;2023-03-01T02:20:19;2.30;99.90
18658;DHT22;9458;50.942;5.074;2023-03-01T02:22:50;2.30;99.90
18658;DHT22;9458;50.942;5.074;2023-03-01T02:25:44;2.20;99.90
18658;DHT22;9458;50.942;5.074;2023-03-01T02:28:26;2.30;99.90
18658;DHT22;9458;50.942;5.074;2023-03-01T02:30:57;2.30;99.90
18658;DHT22;9458;50.942;5.074;2023-03-01T02:33:44;2.30;99.90
18658;DHT22;9458;50.942;5.074;2023-03-01T02:36:19;2.30;99.90
18658;DHT22;9458;50.942;5.074;2023-03-01T02:38:50;2.20;99.90
18658;DHT22;9458;50.942;5.074;2023-03-01T02:41:20;2.20;99.90
18658;DHT22;9458;50.942;5.074;2023-03-01T02:43:49;2.20;99.90
18658;DHT22;9458;50.942;5.074;2023-03-01T02:46:19;2.20;99.90
18658;DHT22;9458;50.942;5.074;2023-03-01T02:48:49;2.20;99.90
18658;DHT22;9458;50.942;5.074;2023-03-01T02:51:41;2.20;99.90
18658;DHT22;9458;50.942;5.074;2023-03-01T02:54:19;2.20;99.90
18658;DHT22;9458;50.942;5.074;2023-03-01T02:56:51;2.10;99.90
18658;DHT22;9458;50.942;5.074;2023-03-01T02:59:22;2.10;99.90
18658;DHT22;9458;50.942;5.074;2023-03-01T03:01:52;2.20;99.90
18658;DHT22;9458;50.942;5.074;2023-03-01T03:04:21;2.10;99.90
18658;DHT22;9458;50.942;5.074;2023-03-01T03:06:51;2.00;99.90
18658;DHT22;9458;50.942;5.074;2023-03-01T03:09:19;2.00;99.90
18658;DHT22;9458;50.942;5.074;2023-03-01T03:11:47;2.00;99.90
18658;DHT22;9458;50.942;5.074;2023-03-01T03:14:16;2.00;99.90
18658;DHT22;9458;50.942;5.074;2023-03-01T03:16:47;2.00;99.90
18658;DHT22;9458;50.942;5.074;2023-03-01T03:19:21;2.00;99.90
18658;DHT22;9458;50.942;5.074;2023-03-01T03:21:49;1.90;99.90
18658;DHT22;9458;50.942;5.074;2023-03-01T03:24:18;2.00;99.90
18658;DHT22;9458;50.942;5.074;2023-03-01T03:26:47;2.00;99.90
18658;DHT22;9458;50.942;5.074;2023-03-01T03:29:15;2.00;99.90
18658;DHT22;9458;50.942;5.074;2023-03-01T03:31:44;2.00;99.90
18658;DHT22;9458;50.942;5.074;2023-03-01T03:34:12;2.00;99.90
18658;DHT22;9458;50.942;5.074;2023-03-01T03:36:44;1.90;99.90
18658;DHT22;9458;50.942;5.074;2023-03-01T03:39:12;2.00;99.90
18658;DHT22;9458;50.942;5.074;2023-03-01T03:41:40;2.00;99.90
18658;DHT22;9458;50.942;5.074;2023-03-01T03:44:08;1.90;99.90
18658;DHT22;9458;50.942;5.074;2023-03-01T03:46:37;1.90;99.90
18658;DHT22;9458;50.942;5.074;2023-03-01T03:49:07;1.90;99.90
18658;DHT22;9458;50.942;5.074;2023-03-01T03:51:35;1.90;99.90
18658;DHT22;9458;50.942;5.074;2023-03-01T03:54:02;1.90;99.90
18658;DHT22;9458;50.942;5.074;2023-03-01T03:56:33;1.90;99.90
18658;DHT22;9458;50.942;5.074;2023-03-01T03:59:01;1.90;99.90
18658;DHT22;9458;50.942;5.074;2023-03-01T04:01:29;1.80;99.90
18658;DHT22;9458;50.942;5.074;2023-03-01T04:03:56;1.80;99.90
18658;DHT22;9458;50.942;5.074;2023-03-01T04:06:32;1.80;99.90
18658;DHT22;9458;50.942;5.074;2023-03-01T04:09:00;1.80;99.90
18658;DHT22;9458;50.942;5.074;2023-03-01T04:11:31;1.70;99.90
18658;DHT22;9458;50.942;5.074;2023-03-01T04:14:02;1.70;99.90
18658;DHT22;9458;50.942;5.074;2023-03-01T04:16:35;1.70;99.90
18658;DHT22;9458;50.942;5.074;2023-03-01T04:19:06;1.80;99.90
18658;DHT22;9458;50.942;5.074;2023-03-01T04:21:40;1.70;99.90
18658;DHT22;9458;50.942;5.074;2023-03-01T04:24:12;1.70;99.90
18658;DHT22;9458;50.942;5.074;2023-03-01T04:26:41;1.60;99.90
18658;DHT22;9458;50.942;5.074;2023-03-01T04:29:10;1.60;99.90
18658;DHT22;9458;50.942;5.074;2023-03-01T04:31:40;1.60;99.90
18658;DHT22;9458;50.942;5.074;2023-03-01T04:34:11;1.60;99.90
18658;DHT22;9458;50.942;5.074;2023-03-01T04:36:44;1.60;99.90
18658;DHT22;9458;50.942;5.074;2023-03-01T04:39:11;1.50;99.90
18658;DHT22;9458;50.942;5.074;2023-03-01T04:41:40;1.40;99.90
18658;DHT22;9458;50.942;5.074;2023-03-01T04:44:09;1.50;99.90
18658;DHT22;9458;50.942;5.074;2023-03-01T04:46:37;1.50;99.90
18658;DHT22;9458;50.942;5.074;2023-03-01T04:49:04;1.50;99.90
18658;DHT22;9458;50.942;5.074;2023-03-01T04:51:32;1.50;99.90
18658;DHT22;9458;50.942;5.074;2023-03-01T04:54:01;1.50;99.90
18658;DHT22;9458;50.942;5.074;2023-03-01T04:56:31;1.50;99.90
18658;DHT22;9458;50.942;5.074;2023-03-01T04:58:58;1.50;99.90
18658;DHT22;9458;50.942;5.074;2023-03-01T05:01:26;1.60;99.90
18658;DHT22;9458;50.942;5.074;2023-03-01T05:03:54;1.50;99.90
18658;DHT22;9458;50.942;5.074;2023-03-01T05:06:22;1.50;99.90
18658;DHT22;9458;50.942;5.074;2023-03-01T05:08:51;1.50;99.90
18658;DHT22;9458;50.942;5.074;2023-03-01T05:11:20;1.40;99.90
18658;DHT22;9458;50.942;5.074;2023-03-01T05:13:49;1.50;99.90
18658;DHT22;9458;50.942;5.074;2023-03-01T05:16:21;1.40;99.90
18658;DHT22;9458;50.942;5.074;2023-03-01T05:18:49;1.40;99.90
18658;DHT22;9458;50.942;5.074;2023-03-01T05:21:18;1.40;99.90
18658;DHT22;9458;50.942;5.074;2023-03-01T05:23:46;1.40;99.90
18658;DHT22;9458;50.942;5.074;2023-03-01T05:26:14;1.40;99.90
18658;DHT22;9458;50.942;5.074;2023-03-01T05:28:45;1.40;99.90
18658;DHT22;9458;50.942;5.074;2023-03-01T05:31:13;1.40;99.90
18658;DHT22;9458;50.942;5.074;2023-03-01T05:33:41;1.40;99.90
18658;DHT22;9458;50.942;5.074;2023-03-01T05:36:10;1.40;99.90
18658;DHT22;9458;50.942;5.074;2023-03-01T05:38:39;1.40;99.90
18658;DHT22;9458;50.942;5.074;2023-03-01T05:41:14;1.30;99.90
18658;DHT22;9458;50.942;5.074;2023-03-01T05:43:42;1.30;99.90
18658;DHT22;9458;50.942;5.074;2023-03-01T05:46:12;1.30;99.90
18658;DHT22;9458;50.942;5.074;2023-03-01T05:48:41;1.30;99.90
18658;DHT22;9458;50.942;5.074;2023-03-01T05:51:10;1.30;99.90
18658;DHT22;9458;50.942;5.074;2023-03-01T05:53:39;1.30;99.90
18658;DHT22;9458;50.942;5.074;2023-03-01T05:56:07;1.20;99.90
18658;DHT22;9458;50.942;5.074;2023-03-01T05:58:35;1.20;99.90
18658;DHT22;9458;50.942;5.074;2023-03-01T06:01:04;1.20;99.90
18658;DHT22;9458;50.942;5.074;2023-03-01T06:03:34;1.20;99.90
18658;DHT22;9458;50.942;5.074;2023-03-01T06:06:01;1.20;99.90
18658;DHT22;9458;50.942;5.074;2023-03-01T06:08:29;1.20;99.90
18658;DHT22;9458;50.942;5.074;2023-03-01T06:10:57;1.30;99.90
18658;DHT22;9458;50.942;5.074;2023-03-01T06:13:24;1.20;99.90
18658;DHT22;9458;50.942;5.074;2023-03-01T06:15:52;1.20;99.90
18658;DHT22;9458;50.942;5.074;2023-03-01T06:18:20;1.20;99.90
18658;DHT22;9458;50.942;5.074;2023-03-01T06:20:54;1.20;99.90
18658;DHT22;9458;50.942;5.074;2023-03-01T06:23:23;1.20;99.90
18658;DHT22;9458;50.942;5.074;2023-03-01T06:25:52;1.20;99.90
18658;DHT22;9458;50.942;5.074;2023-03-01T06:28:19;1.20;99.90
18658;DHT22;9458;50.942;5.074;2023-03-01T06:30:47;1.20;99.90
18658;DHT22;9458;50.942;5.074;2023-03-01T06:33:15;1.20;99.90
18658;DHT22;9458;50.942;5.074;2023-03-01T06:35:46;1.10;99.90
18658;DHT22;9458;50.942;5.074;2023-03-01T06:38:15;1.10;99.90
18658;DHT22;9458;50.942;5.074;2023-03-01T06:40:45;1.20;99.90
18658;DHT22;9458;50.942;5.074;2023-03-01T06:43:18;1.20;99.90
18658;DHT22;9458;50.942;5.074;2023-03-01T06:45:46;1.20;99.90
18658;DHT22;9458;50.942;5.074;2023-03-01T06:48:13;1.30;99.90
18658;DHT22;9458;50.942;5.074;2023-03-01T06:50:41;1.30;99.90
18658;DHT22;9458;50.942;5.074;2023-03-01T06:53:09;1.30;99.90
18658;DHT22;9458;50.942;5.074;2023-03-01T06:55:38;1.30;99.90
18658;DHT22;9458;50.942;5.074;2023-03-01T06:58:06;1.50;99.90
18658;DHT22;9458;50.942;5.074;2023-03-01T07:00:34;1.70;99.90
18658;DHT22;9458;50.942;5.074;2023-03-01T07:03:09;2.00;99.90
18658;DHT22;9458;50.942;5.074;2023-03-01T07:05:48;2.80;99.90
18658;DHT22;9458;50.942;5.074;2023-03-01T07:08:27;3.70;99.90
18658;DHT22;9458;50.942;5.074;2023-03-01T07:10:59;4.10;99.90
18658;DHT22;9458;50.942;5.074;2023-03-01T07:13:37;4.60;99.90
18658;DHT22;9458;50.942;5.074;2023-03-01T07:16:06;5.00;99.90
18658;DHT22;9458;50.942;5.074;2023-03-01T07:18:35;5.10;99.90
18658;DHT22;9458;50.942;5.074;2023-03-01T07:21:05;5.20;99.90
18658;DHT22;9458;50.942;5.074;2023-03-01T07:23:34;5.40;99.90
18658;DHT22;9458;50.942;5.074;2023-03-01T07:26:03;5.70;99.90
18658;DHT22;9458;50.942;5.074;2023-03-01T07:28:31;5.80;99.90
18658;DHT22;9458;50.942;5.074;2023-03-01T07:31:03;6.20;99.90
18658;DHT22;9458;50.942;5.074;2023-03-01T07:33:34;6.70;99.90
18658;DHT22;9458;50.942;5.074;2023-03-01T07:36:03;7.00;99.90
18658;DHT22;9458;50.942;5.074;2023-03-01T07:38:32;7.20;99.90
18658;DHT22;9458;50.942;5.074;2023-03-01T07:41:01;7.60;99.90
18658;DHT22;9458;50.942;5.074;2023-03-01T07:43:31;7.90;99.90
18658;DHT22;9458;50.942;5.074;2023-03-01T07:46:00;8.20;99.90
18658;DHT22;9458;50.942;5.074;2023-03-01T07:48:31;8.70;99.90
18658;DHT22;9458;50.942;5.074;2023-03-01T07:50:58;9.00;99.50
18658;DHT22;9458;50.942;5.074;2023-03-01T07:53:26;9.20;98.80
18658;DHT22;9458;50.942;5.074;2023-03-01T07:56:01;9.40;98.60
18658;DHT22;9458;50.942;5.074;2023-03-01T07:58:31;9.70;98.60
18658;DHT22;9458;50.942;5.074;2023-03-01T08:01:01;10.10;98.20
18658;DHT22;9458;50.942;5.074;2023-03-01T08:03:29;10.30;97.40
18658;DHT22;9458;50.942;5.074;2023-03-01T08:05:59;10.50;96.80
18658;DHT22;9458;50.942;5.074;2023-03-01T08:08:28;10.30;95.90
18658;DHT22;9458;50.942;5.074;2023-03-01T08:10:57;10.30;96.20
18658;DHT22;9458;50.942;5.074;2023-03-01T08:13:26;10.50;96.70
18658;DHT22;9458;50.942;5.074;2023-03-01T08:16:00;10.80;96.40
18658;DHT22;9458;50.942;5.074;2023-03-01T08:18:30;10.90;96.50
18658;DHT22;9458;50.942;5.074;2023-03-01T08:21:02;11.20;95.80
18658;DHT22;9458;50.942;5.074;2023-03-01T08:23:29;11.70;95.20
18658;DHT22;9458;50.942;5.074;2023-03-01T08:26:06;12.10;95.00
18658;DHT22;9458;50.942;5.074;2023-03-01T08:28:35;12.60;94.80
18658;DHT22;9458;50.942;5.074;2023-03-01T08:31:13;12.90;95.30
18658;DHT22;9458;50.942;5.074;2023-03-01T08:33:43;13.40;94.40
18658;DHT22;9458;50.942;5.074;2023-03-01T08:36:16;13.90;94.60
18658;DHT22;9458;50.942;5.074;2023-03-01T08:38:44;14.20;93.90
18658;DHT22;9458;50.942;5.074;2023-03-01T08:41:14;14.50;93.00
18658;DHT22;9458;50.942;5.074;2023-03-01T08:43:42;14.40;91.90
18658;DHT22;9458;50.942;5.074;2023-03-01T08:46:12;14.50;91.70
18658;DHT22;9458;50.942;5.074;2023-03-01T08:48:41;14.60;91.90
18658;DHT22;9458;50.942;5.074;2023-03-01T08:51:11;14.90;91.50
18658;DHT22;9458;50.942;5.074;2023-03-01T08:53:40;15.10;91.60
18658;DHT22;9458;50.942;5.074;2023-03-01T08:56:08;15.70;92.40
18658;DHT22;9458;50.942;5.074;2023-03-01T08:58:36;16.00;91.20
18658;DHT22;9458;50.942;5.074;2023-03-01T09:01:07;16.40;91.10
18658;DHT22;9458;50.942;5.074;2023-03-01T09:03:38;16.50;89.90
18658;DHT22;9458;50.942;5.074;2023-03-01T09:06:07;16.70;89.00
18658;DHT22;9458;50.942;5.074;2023-03-01T09:08:35;16.90;88.40
18658;DHT22;9458;50.942;5.074;2023-03-01T09:11:03;17.10;87.70
18658;DHT22;9458;50.942;5.074;2023-03-01T09:13:31;17.30;86.30
18658;DHT22;9458;50.942;5.074;2023-03-01T09:16:02;16.70;83.40
18658;DHT22;9458;50.942;5.074;2023-03-01T09:18:30;17.00;85.90
18658;DHT22;9458;50.942;5.074;2023-03-01T09:21:05;17.10;85.90
18658;DHT22;9458;50.942;5.074;2023-03-01T09:23:35;17.50;85.30
18658;DHT22;9458;50.942;5.074;2023-03-01T09:26:04;17.60;84.30
18658;DHT22;9458;50.942;5.074;2023-03-01T09:28:32;17.70;82.20
18658;DHT22;9458;50.942;5.074;2023-03-01T09:31:01;17.90;82.50
18658;DHT22;9458;50.942;5.074;2023-03-01T09:33:30;17.80;82.50
18658;DHT22;9458;50.942;5.074;2023-03-01T09:35:58;17.90;80.20
18658;DHT22;9458;50.942;5.074;2023-03-01T09:38:29;18.00;81.20
18658;DHT22;9458;50.942;5.074;2023-03-01T09:40:57;18.00;78.60
18658;DHT22;9458;50.942;5.074;2023-03-01T09:43:30;17.60;79.60
18658;DHT22;9458;50.942;5.074;2023-03-01T09:46:04;17.10;78.10
18658;DHT22;9458;50.942;5.074;2023-03-01T09:48:42;17.10;80.60
18658;DHT22;9458;50.942;5.074;2023-03-01T09:51:17;17.20;78.10
18658;DHT22;9458;50.942;5.074;2023-03-01T09:53:47;16.40;78.70
18658;DHT22;9458;50.942;5.074;2023-03-01T09:56:19;14.80;79.60
18658;DHT22;9458;50.942;5.074;2023-03-01T09:58:52;13.90;83.40
18658;DHT22;9458;50.942;5.074;2023-03-01T10:01:33;13.20;86.10
18658;DHT22;9458;50.942;5.074;2023-03-01T10:07:17;11.70;87.40
18658;DHT22;9458;50.942;5.074;2023-03-01T10:09:50;11.00;87.50
18658;DHT22;9458;50.942;5.074;2023-03-01T10:12:20;10.20;88.70
18658;DHT22;9458;50.942;5.074;2023-03-01T10:14:56;10.00;89.40
18658;DHT22;9458;50.942;5.074;2023-03-01T10:17:30;9.80;91.30
18658;DHT22;9458;50.942;5.074;2023-03-01T10:20:15;9.70;90.90
18658;DHT22;9458;50.942;5.074;2023-03-01T10:22:43;9.60;91.10
18658;DHT22;9458;50.942;5.074;2023-03-01T10:25:29;9.20;91.40
18658;DHT22;9458;50.942;5.074;2023-03-01T10:28:05;9.00;92.20
18658;DHT22;9458;50.942;5.074;2023-03-01T10:30:38;8.90;91.60
18658;DHT22;9458;50.942;5.074;2023-03-01T10:33:15;9.00;92.30
18658;DHT22;9458;50.942;5.074;2023-03-01T10:35:44;8.90;92.30
18658;DHT22;9458;50.942;5.074;2023-03-01T10:38:15;8.90;92.50
18658;DHT22;9458;50.942;5.074;2023-03-01T10:40:54;8.90;92.40
18658;DHT22;9458;50.942;5.074;2023-03-01T10:43:23;8.80;92.10
18658;DHT22;9458;50.942;5.074;2023-03-01T10:45:52;8.70;92.70
18658;DHT22;9458;50.942;5.074;2023-03-01T10:48:21;8.40;92.00
18658;DHT22;9458;50.942;5.074;2023-03-01T10:51:06;8.50;92.60
18658;DHT22;9458;50.942;5.074;2023-03-01T10:53:36;8.50;92.60
18658;DHT22;9458;50.942;5.074;2023-03-01T10:56:10;8.40;93.40
18658;DHT22;9458;50.942;5.074;2023-03-01T10:58:41;8.10;93.50
18658;DHT22;9458;50.942;5.074;2023-03-01T11:01:28;8.00;93.20
18658;DHT22;9458;50.942;5.074;2023-03-01T11:04:12;8.10;94.10
18658;DHT22;9458;50.942;5.074;2023-03-01T11:06:41;8.10;93.80
18658;DHT22;9458;50.942;5.074;2023-03-01T11:09:18;8.00;93.40
18658;DHT22;9458;50.942;5.074;2023-03-01T11:11:52;8.20;93.80
18658;DHT22;9458;50.942;5.074;2023-03-01T11:14:22;8.10;93.50
18658;DHT22;9458;50.942;5.074;2023-03-01T11:16:59;8.10;93.60
18658;DHT22;9458;50.942;5.074;2023-03-01T11:19:29;8.10;94.20
18658;DHT22;9458;50.942;5.074;2023-03-01T11:22:01;8.10;94.40
18658;DHT22;9458;50.942;5.074;2023-03-01T11:24:36;8.10;94.50
18658;DHT22;9458;50.942;5.074;2023-03-01T11:27:14;8.10;94.00
18658;DHT22;9458;50.942;5.074;2023-03-01T11:29:45;8.00;93.40
18658;DHT22;9458;50.942;5.074;2023-03-01T11:32:18;8.10;93.80
18658;DHT22;9458;50.942;5.074;2023-03-01T11:34:50;8.10;94.10
18658;DHT22;9458;50.942;5.074;2023-03-01T11:37:32;8.10;94.30
18658;DHT22;9458;50.942;5.074;2023-03-01T11:40:10;8.10;94.50
18658;DHT22;9458;50.942;5.074;2023-03-01T11:42:50;8.20;94.30
18658;DHT22;9458;50.942;5.074;2023-03-01T11:45:23;8.10;93.60
18658;DHT22;9458;50.942;5.074;2023-03-01T11:48:01;7.90;93.80
18658;DHT22;9458;50.942;5.074;2023-03-01T11:50:40;7.80;94.00
18658;DHT22;9458;50.942;5.074;2023-03-01T11:53:29;7.70;94.20
18658;DHT22;9458;50.942;5.074;2023-03-01T11:56:05;7.80;95.30
18658;DHT22;9458;50.942;5.074;2023-03-01T11:58:51;7.80;94.70
18658;DHT22;9458;50.942;5.074;2023-03-01T12:01:30;7.70;94.70
18658;DHT22;9458;50.942;5.074;2023-03-01T12:07:00;7.80;94.70
18658;DHT22;9458;50.942;5.074;2023-03-01T12:09:38;7.80;95.00
18658;DHT22;9458;50.942;5.074;2023-03-01T12:12:26;7.80;94.90
18658;DHT22;9458;50.942;5.074;2023-03-01T12:18:31;7.80;94.20
18658;DHT22;9458;50.942;5.074;2023-03-01T12:21:09;7.60;93.90
18658;DHT22;9458;50.942;5.074;2023-03-01T12:26:53;7.50;93.70
18658;DHT22;9458;50.942;5.074;2023-03-01T12:29:29;7.50;94.00
18658;DHT22;9458;50.942;5.074;2023-03-01T12:32:17;7.40;94.30
18658;DHT22;9458;50.942;5.074;2023-03-01T12:37:51;7.40;94.20
18658;DHT22;9458;50.942;5.074;2023-03-01T12:43:27;7.50;94.40
18658;DHT22;9458;50.942;5.074;2023-03-01T12:46:10;7.40;94.60
18658;DHT22;9458;50.942;5.074;2023-03-01T12:48:50;7.50;94.90
18658;DHT22;9458;50.942;5.074;2023-03-01T12:51:24;7.20;94.00
18658;DHT22;9458;50.942;5.074;2023-03-01T12:53:53;7.30;94.30
18658;DHT22;9458;50.942;5.074;2023-03-01T12:56:24;7.30;94.80
18658;DHT22;9458;50.942;5.074;2023-03-01T12:58:59;7.30;95.00
18658;DHT22;9458;50.942;5.074;2023-03-01T13:01:39;7.30;94.20
18658;DHT22;9458;50.942;5.074;2023-03-01T13:04:17;7.30;94.10
18658;DHT22;9458;50.942;5.074;2023-03-01T13:06:54;7.30;94.50
18658;DHT22;9458;50.942;5.074;2023-03-01T13:09:28;7.20;94.30
18658;DHT22;9458;50.942;5.074;2023-03-01T13:11:56;7.20;94.50
18658;DHT22;9458;50.942;5.074;2023-03-01T13:14:36;7.20;94.60
18658;DHT22;9458;50.942;5.074;2023-03-01T13:17:04;7.30;94.90
18658;DHT22;9458;50.942;5.074;2023-03-01T13:19:33;7.30;94.90
18658;DHT22;9458;50.942;5.074;2023-03-01T13:22:26;7.20;95.20
18658;DHT22;9458;50.942;5.074;2023-03-01T13:25:02;7.20;94.10
18658;DHT22;9458;50.942;5.074;2023-03-01T13:27:30;7.20;94.70
18658;DHT22;9458;50.942;5.074;2023-03-01T13:29:59;7.20;94.90
18658;DHT22;9458;50.942;5.074;2023-03-01T13:32:32;7.20;95.30
18658;DHT22;9458;50.942;5.074;2023-03-01T13:35:02;7.20;95.30
18658;DHT22;9458;50.942;5.074;2023-03-01T13:37:36;7.20;96.00
18658;DHT22;9458;50.942;5.074;2023-03-01T13:43:30;7.20;95.10
18658;DHT22;9458;50.942;5.074;2023-03-01T13:46:00;7.10;94.80
18658;DHT22;9458;50.942;5.074;2023-03-01T13:48:30;7.10;94.80
18658;DHT22;9458;50.942;5.074;2023-03-01T13:51:03;7.10;95.70
18658;DHT22;9458;50.942;5.074;2023-03-01T13:53:34;7.20;95.70
18658;DHT22;9458;50.942;5.074;2023-03-01T13:56:08;7.10;95.40
18658;DHT22;9458;50.942;5.074;2023-03-01T13:58:48;7.10;95.30
18658;DHT22;9458;50.942;5.074;2023-03-01T14:01:27;7.20;95.60
18658;DHT22;9458;50.942;5.074;2023-03-01T14:03:56;7.10;94.80
18658;DHT22;9458;50.942;5.074;2023-03-01T14:06:29;7.20;95.50
18658;DHT22;9458;50.942;5.074;2023-03-01T14:09:04;7.20;95.90
18658;DHT22;9458;50.942;5.074;2023-03-01T14:11:58;7.20;96.10
18658;DHT22;9458;50.942;5.074;2023-03-01T14:17:32;7.30;95.70
18658;DHT22;9458;50.942;5.074;2023-03-01T14:20:11;7.20;95.20
18658;DHT22;9458;50.942;5.074;2023-03-01T14:22:43;7.20;95.30
18658;DHT22;9458;50.942;5.074;2023-03-01T14:25:25;7.20;95.30
18658;DHT22;9458;50.942;5.074;2023-03-01T14:27:59;7.20;95.20
18658;DHT22;9458;50.942;5.074;2023-03-01T14:30:31;7.20;95.00
18658;DHT22;9458;50.942;5.074;2023-03-01T14:33:02;7.20;95.30
18658;DHT22;9458;50.942;5.074;2023-03-01T14:35:31;7.20;95.50
18658;DHT22;9458;50.942;5.074;2023-03-01T14:38:00;7.20;95.20
18658;DHT22;9458;50.942;5.074;2023-03-01T14:40:30;7.10;94.60
18658;DHT22;9458;50.942;5.074;2023-03-01T14:43:00;7.10;94.50
18658;DHT22;9458;50.942;5.074;2023-03-01T14:45:30;7.10;94.90
18658;DHT22;9458;50.942;5.074;2023-03-01T14:48:00;7.10;95.00
18658;DHT22;9458;50.942;5.074;2023-03-01T14:50:30;7.10;95.00
18658;DHT22;9458;50.942;5.074;2023-03-01T14:53:01;7.10;95.60
18658;DHT22;9458;50.942;5.074;2023-03-01T14:55:33;7.10;95.20
18658;DHT22;9458;50.942;5.074;2023-03-01T14:58:03;7.10;95.30
18658;DHT22;9458;50.942;5.074;2023-03-01T15:00:33;7.10;95.50
18658;DHT22;9458;50.942;5.074;2023-03-01T15:03:14;7.10;95.70
18658;DHT22;9458;50.942;5.074;2023-03-01T15:05:46;7.10;96.00
18658;DHT22;9458;50.942;5.074;2023-03-01T15:08:19;7.10;95.30
18658;DHT22;9458;50.942;5.074;2023-03-01T15:10:59;7.10;95.50
18658;DHT22;9458;50.942;5.074;2023-03-01T15:13:31;7.20;95.90
18658;DHT22;9458;50.942;5.074;2023-03-01T15:16:05;7.10;95.90
18658;DHT22;9458;50.942;5.074;2023-03-01T15:18:37;7.10;95.50
18658;DHT22;9458;50.942;5.074;2023-03-01T15:21:07;7.10;95.30
18658;DHT22;9458;50.942;5.074;2023-03-01T15:23:37;7.10;95.50
18658;DHT22;9458;50.942;5.074;2023-03-01T15:26:16;7.10;96.20
18658;DHT22;9458;50.942;5.074;2023-03-01T15:28:51;7.00;96.00
18658;DHT22;9458;50.942;5.074;2023-03-01T15:31:22;7.10;95.70
18658;DHT22;9458;50.942;5.074;2023-03-01T15:33:50;7.10;95.60
18658;DHT22;9458;50.942;5.074;2023-03-01T15:36:36;7.00;95.70
18658;DHT22;9458;50.942;5.074;2023-03-01T15:41:50;7.00;95.60
18658;DHT22;9458;50.942;5.074;2023-03-01T15:44:25;6.90;95.50
18658;DHT22;9458;50.942;5.074;2023-03-01T15:46:53;6.90;95.80
18658;DHT22;9458;50.942;5.074;2023-03-01T15:49:29;6.90;95.60
18658;DHT22;9458;50.942;5.074;2023-03-01T15:51:57;6.90;95.80
18658;DHT22;9458;50.942;5.074;2023-03-01T15:54:28;6.90;95.60
18658;DHT22;9458;50.942;5.074;2023-03-01T15:56:56;6.90;95.50
18658;DHT22;9458;50.942;5.074;2023-03-01T15:59:24;6.90;95.50
18658;DHT22;9458;50.942;5.074;2023-03-01T16:01:53;6.80;95.50
18658;DHT22;9458;50.942;5.074;2023-03-01T16:04:21;6.80;95.30
18658;DHT22;9458;50.942;5.074;2023-03-01T16:06:49;6.80;95.90
18658;DHT22;9458;50.942;5.074;2023-03-01T16:09:21;6.80;96.00
18658;DHT22;9458;50.942;5.074;2023-03-01T16:11:52;6.80;95.50
18658;DHT22;9458;50.942;5.074;2023-03-01T16:14:21;6.80;95.60
18658;DHT22;9458;50.942;5.074;2023-03-01T16:16:49;6.80;95.10
18658;DHT22;9458;50.942;5.074;2023-03-01T16:19:17;6.70;94.80
18658;DHT22;9458;50.942;5.074;2023-03-01T16:21:44;6.70;95.20
18658;DHT22;9458;50.942;5.074;2023-03-01T16:24:14;6.70;95.50
18658;DHT22;9458;50.942;5.074;2023-03-01T16:26:43;6.70;95.20
18658;DHT22;9458;50.942;5.074;2023-03-01T16:29:12;6.60;95.40
18658;DHT22;9458;50.942;5.074;2023-03-01T16:31:41;6.60;94.80
18658;DHT22;9458;50.942;5.074;2023-03-01T16:34:10;6.60;95.30
18658;DHT22;9458;50.942;5.074;2023-03-01T16:36:37;6.60;95.00
18658;DHT22;9458;50.942;5.074;2023-03-01T16:39:04;6.60;95.00
18658;DHT22;9458;50.942;5.074;2023-03-01T16:41:32;6.60;95.20
18658;DHT22;9458;50.942;5.074;2023-03-01T16:43:59;6.50;94.90
18658;DHT22;9458;50.942;5.074;2023-03-01T16:46:29;6.50;95.50
18658;DHT22;9458;50.942;5.074;2023-03-01T16:48:58;6.50;95.60
18658;DHT22;9458;50.942;5.074;2023-03-01T16:51:26;6.50;95.20
18658;DHT22;9458;50.942;5.074;2023-03-01T16:53:55;6.50;95.60
18658;DHT22;9458;50.942;5.074;2023-03-01T16:56:24;6.40;95.50